Time;durP1;ratioP1;P1;durP2;ratioP2;P2;SDS_P1;SDS_P2;PMS_P1;PMS_P2;Temp;Humidity;BMP_temperature;BMP_pressure;BME280_temperature;BME280_humidity;BME280_pressure;Samples;Min_cycle;Max_cycle;Signal;HPM_P1;HPM_P2
2021/09/12 00:04:15;;;;;;;13.88;12.43;;;;;;;20.03;80.12;100666.95;4697266;63;21216;-85
2021/09/12 00:09:21;;;;;;;13.00;11.65;;;;;;;20.01;80.30;100666.30;4696223;63;21364;-84
2021/09/12 00:14:28;;;;;;;14.05;12.55;;;;;;;20.01;80.21;100665.48;4694653;63;21614;-84
2021/09/12 00:19:33;;;;;;;18.10;13.48;;;;;;;20.03;80.42;100658.06;4694753;63;21228;-86
2021/09/12 00:24:39;;;;;;;13.90;12.50;;;;;;;20.08;80.21;100664.26;4702511;63;21196;-84
2021/09/12 00:29:45;;;;;;;14.70;12.13;;;;;;;19.87;79.76;100672.91;4705645;63;21196;-86
2021/09/12 00:34:51;;;;;;;14.70;12.35;;;;;;;19.61;79.92;100670.02;4686717;62;21659;-84
2021/09/12 00:39:57;;;;;;;13.30;12.00;;;;;;;19.53;80.49;100676.77;4668833;63;21197;-85
2021/09/12 00:45:03;;;;;;;15.32;12.58;;;;;;;19.47;80.62;100671.22;4668913;63;21236;-84
2021/09/12 00:50:10;;;;;;;13.13;11.83;;;;;;;19.49;81.04;100678.13;4668878;63;21643;-84
2021/09/12 00:55:17;;;;;;;13.08;11.68;;;;;;;19.58;81.38;100669.53;4668802;63;21615;-84
2021/09/12 01:00:23;;;;;;;13.13;11.18;;;;;;;19.64;81.18;100670.19;4766318;62;21845;-84
2021/09/12 01:05:29;;;;;;;12.00;10.88;;;;;;;19.68;80.59;100666.66;4771683;62;22080;-85
2021/09/12 01:10:35;;;;;;;15.53;12.15;;;;;;;19.69;80.29;100670.51;4771683;62;21214;-84
2021/09/12 01:15:41;;;;;;;14.47;12.98;;;;;;;19.67;80.20;100669.84;4771552;62;21119;-85
2021/09/12 01:20:48;;;;;;;17.55;12.73;;;;;;;19.61;80.10;100670.02;4771578;62;21233;-84
2021/09/12 01:25:58;;;;;;;14.20;12.30;;;;;;;19.63;80.05;100669.34;4771388;62;21235;-85
2021/09/12 01:31:03;;;;;;;16.37;12.80;;;;;;;19.62;79.89;100664.98;4771419;62;22105;-83
2021/09/12 01:36:09;;;;;;;14.47;12.93;;;;;;;19.60;79.64;100662.98;4771371;61;21217;-83
2021/09/12 01:41:15;;;;;;;21.50;15.18;;;;;;;19.55;79.35;100674.76;4754335;62;21226;-84
2021/09/12 01:46:21;;;;;;;59.20;15.30;;;;;;;19.39;79.01;100668.08;4617373;63;21193;-83
2021/09/12 01:51:27;;;;;;;38.67;15.90;;;;;;;19.14;79.02;100666.44;4617631;63;21650;-83
2021/09/12 01:56:32;;;;;;;21.60;14.33;;;;;;;18.91;79.69;100673.02;4617420;63;21204;-83
2021/09/12 02:01:38;;;;;;;23.22;17.75;;;;;;;18.74;80.99;100665.50;4617659;63;21240;-84
2021/09/12 02:06:43;;;;;;;27.67;16.82;;;;;;;18.64;81.68;100672.05;4617537;63;21202;-83
2021/09/12 02:11:49;;;;;;;41.95;16.75;;;;;;;18.66;82.14;100667.33;4617531;63;21228;-84
2021/09/12 02:16:55;;;;;;;36.33;15.85;;;;;;;18.73;82.50;100670.52;4617329;63;22128;-83
2021/09/12 02:22:01;;;;;;;54.55;14.95;;;;;;;18.80;82.71;100667.98;4617416;63;21134;-83
2021/09/12 02:27:06;;;;;;;33.53;17.80;;;;;;;18.77;82.72;100671.03;4617461;63;21571;-83
2021/09/12 02:32:14;;;;;;;29.70;17.32;;;;;;;18.66;82.96;100670.84;4617483;63;21216;-83
2021/09/12 02:37:20;;;;;;;26.62;17.82;;;;;;;18.58;83.34;100676.18;4654495;62;21148;-84
2021/09/12 02:42:26;;;;;;;22.80;18.32;;;;;;;18.51;83.61;100663.94;4733994;62;21211;-84
2021/09/12 02:47:32;;;;;;;19.55;17.32;;;;;;;18.49;83.81;100664.61;4734154;62;21574;-82
2021/09/12 02:52:38;;;;;;;19.32;16.77;;;;;;;18.47;83.98;100672.50;4724237;62;21229;-84
2021/09/12 02:57:44;;;;;;;30.72;17.80;;;;;;;18.49;84.25;100669.96;4723154;62;22630;-84
2021/09/12 03:02:50;;;;;;;36.50;19.92;;;;;;;18.43;84.62;100670.64;4723304;62;21224;-82
2021/09/12 03:07:56;;;;;;;28.07;18.90;;;;;;;18.36;84.70;100666.10;4723418;62;21227;-83
2021/09/12 03:13:02;;;;;;;23.40;18.82;;;;;;;18.33;84.99;100670.48;4722897;62;21280;-84
2021/09/12 03:18:09;;;;;;;37.55;17.52;;;;;;;18.36;85.61;100676.31;4723136;62;21160;-85
2021/09/12 03:23:14;;;;;;;93.27;19.57;;;;;;;18.40;86.07;100682.19;4723693;62;21555;-84
2021/09/12 03:28:21;;;;;;;35.00;17.43;;;;;;;18.30;86.10;100681.02;4696210;62;21212;-83
2021/09/12 03:33:26;;;;;;;27.15;17.32;;;;;;;18.26;86.24;100680.50;4725623;62;21559;-83
2021/09/12 03:38:32;;;;;;;51.42;17.17;;;;;;;18.15;87.09;100674.13;4700021;62;21228;-84
2021/09/12 03:43:38;;;;;;;35.00;15.40;;;;;;;18.03;88.00;100678.09;4697528;63;21208;-85
2021/09/12 03:48:44;;;;;;;18.23;13.93;;;;;;;17.97;88.89;100670.73;4697666;63;21590;-83
2021/09/12 03:53:50;;;;;;;27.27;13.83;;;;;;;17.86;89.15;100668.36;4695836;63;21224;-82
2021/09/12 03:58:55;;;;;;;33.25;16.82;;;;;;;17.84;89.76;100667.68;4695511;63;21223;-84
2021/09/12 04:04:02;;;;;;;22.37;15.27;;;;;;;17.84;89.93;100671.70;4695516;63;21327;-83
2021/09/12 04:09:08;;;;;;;23.17;14.93;;;;;;;17.88;90.19;100675.20;4695354;63;21236;-83
2021/09/12 04:14:14;;;;;;;30.40;15.20;;;;;;;17.85;90.39;100675.55;4696020;63;21279;-84
2021/09/12 04:19:20;;;;;;;34.57;19.33;;;;;;;17.80;90.90;100685.89;4695992;63;21300;-85
2021/09/12 04:24:25;;;;;;;29.53;18.60;;;;;;;17.75;91.08;100682.84;4697299;63;21220;-83
2021/09/12 04:29:32;;;;;;;56.43;20.10;;;;;;;17.75;91.44;100683.34;4697451;63;21244;-86
2021/09/12 04:34:38;;;;;;;44.27;20.67;;;;;;;17.81;91.56;100678.70;4697514;63;21594;-85
2021/09/12 04:39:44;;;;;;;22.97;17.57;;;;;;;17.83;91.67;100677.55;4695401;63;21249;-85
2021/09/12 04:44:50;;;;;;;21.60;17.20;;;;;;;17.84;91.93;100683.23;4696857;63;22167;-85
2021/09/12 04:49:57;;;;;;;28.80;17.13;;;;;;;17.82;92.06;100683.05;4708831;63;21723;-84
2021/09/12 04:55:02;;;;;;;27.87;20.07;;;;;;;17.80;92.15;100678.36;4708709;63;21184;-85
2021/09/12 05:00:09;;;;;;;28.90;17.57;;;;;;;17.76;92.27;100682.34;4709508;63;21259;-87
2021/09/12 05:05:16;;;;;;;35.20;18.63;;;;;;;17.73;92.94;100677.31;4709524;63;21215;-87
2021/09/12 05:10:22;;;;;;;27.27;17.57;;;;;;;17.77;92.83;100687.54;4709553;63;21239;-85
2021/09/12 05:15:28;;;;;;;15.80;12.37;;;;;;;17.77;92.90;100682.19;4709387;63;21241;-86
2021/09/12 05:20:34;;;;;;;44.90;19.13;;;;;;;17.71;94.33;100689.55;4709956;63;21194;-84
2021/09/12 05:25:40;;;;;;;38.97;20.57;;;;;;;17.65;93.73;100690.17;4709979;63;21574;-85
2021/09/12 05:30:46;;;;;;;32.27;18.33;;;;;;;17.68;94.03;100701.89;4710209;63;21204;-85
2021/09/12 05:35:52;;;;;;;43.53;24.00;;;;;;;17.69;94.15;100697.38;4705179;62;21191;-85
2021/09/12 05:40:58;;;;;;;34.20;21.13;;;;;;;17.67;94.23;100698.88;4672429;63;21200;-85
2021/09/12 05:46:05;;;;;;;40.40;22.27;;;;;;;17.68;94.71;100709.92;4669295;63;21225;-85
2021/09/12 05:51:11;;;;;;;32.37;22.07;;;;;;;17.67;95.02;100710.91;4669281;63;22188;-87
2021/09/12 05:56:17;;;;;;;33.53;21.67;;;;;;;17.72;95.05;100710.45;4669258;63;21208;-85
2021/09/12 06:01:23;;;;;;;33.73;22.63;;;;;;;17.75;95.12;100712.28;4669387;63;21241;-86
2021/09/12 06:06:29;;;;;;;29.10;19.48;;;;;;;17.73;95.22;100703.56;4669474;63;21254;-86
2021/09/12 06:11:35;;;;;;;18.50;13.47;;;;;;;17.75;95.61;100702.07;4669620;63;21145;-84
2021/09/12 06:16:41;;;;;;;30.10;19.73;;;;;;;17.72;96.89;100717.94;4668594;63;21192;-86
2021/09/12 06:21:46;;;;;;;29.50;20.27;;;;;;;17.72;96.11;100709.11;4668220;63;22174;-87
2021/09/12 06:26:52;;;;;;;31.13;21.97;;;;;;;17.80;96.08;100706.45;4668249;63;21197;-86
2021/09/12 06:31:58;;;;;;;26.17;18.63;;;;;;;17.80;95.99;100711.30;4668530;63;21213;-85
2021/09/12 06:37:04;;;;;;;32.98;21.93;;;;;;;17.78;96.56;100717.81;4677782;61;21606;-86
2021/09/12 06:42:10;;;;;;;29.83;21.73;;;;;;;17.77;96.73;100719.64;4704900;63;21204;-87
2021/09/12 06:47:16;;;;;;;37.93;22.87;;;;;;;17.80;96.76;100720.67;4705045;63;21212;-87
2021/09/12 06:52:22;;;;;;;31.73;21.43;;;;;;;17.78;96.50;100720.48;4704905;63;21726;-85
2021/09/12 06:57:30;;;;;;;37.97;22.87;;;;;;;17.77;96.78;100721.48;4705233;63;21196;-84
2021/09/12 07:02:38;;;;;;;28.40;20.10;;;;;;;17.83;96.59;100720.35;4709154;63;21232;-87
2021/09/12 07:07:44;;;;;;;30.70;21.62;;;;;;;17.92;96.40;100711.84;4706029;62;21189;-86
2021/09/12 07:12:51;;;;;;;31.63;22.00;;;;;;;17.99;96.04;100721.41;4710792;62;21779;-86
2021/09/12 07:17:56;;;;;;;30.77;20.83;;;;;;;17.99;96.10;100723.59;4712153;62;21126;-85
2021/09/12 07:23:03;;;;;;;33.48;22.02;;;;;;;18.07;96.74;100730.30;4718575;62;21181;-87
2021/09/12 07:28:09;;;;;;;36.33;23.07;;;;;;;18.15;96.57;100727.66;4707707;62;21194;-86
2021/09/12 07:33:15;;;;;;;33.00;22.02;;;;;;;18.28;96.73;100721.84;4709194;63;21201;-84
2021/09/12 07:38:21;;;;;;;28.50;18.65;;;;;;;18.46;96.75;100718.53;4694468;61;21190;-86
2021/09/12 07:43:28;;;;;;;26.23;20.52;;;;;;;18.70;96.42;100724.44;4672377;63;21190;-80
2021/09/12 07:48:34;;;;;;;31.65;20.10;;;;;;;18.81;95.70;100728.12;4674892;63;21220;-81
2021/09/12 07:53:40;;;;;;;36.90;21.02;;;;;;;18.92;95.26;100737.19;4662746;63;21232;-80
2021/09/12 07:58:46;;;;;;;28.73;18.57;;;;;;;19.00;95.14;100747.55;4663584;63;21257;-81
2021/09/12 08:03:52;;;;;;;21.07;15.32;;;;;;;19.16;95.48;100751.57;4663782;63;21260;-79
2021/09/12 08:08:59;;;;;;;25.60;17.62;;;;;;;19.22;94.46;100755.77;4661806;63;21574;-80
2021/09/12 08:14:04;;;;;;;24.80;17.37;;;;;;;19.18;93.93;100760.29;4661988;63;21364;-80
2021/09/12 08:19:10;;;;;;;29.18;20.45;;;;;;;19.15;93.75;100762.80;4661802;63;21510;-79
2021/09/12 08:24:16;;;;;;;29.87;22.80;;;;;;;19.11;93.59;100762.79;4661713;63;21268;-80
2021/09/12 08:29:22;;;;;;;25.17;18.02;;;;;;;19.15;93.29;100763.30;4662223;63;21273;-80
2021/09/12 08:34:28;;;;;;;27.20;19.63;;;;;;;19.28;93.66;100768.48;4642110;59;1139467;-83
2021/09/12 08:39:35;;;;;;;29.22;22.35;;;;;;;19.30;92.23;100766.47;3759948;59;1146716;-83
2021/09/12 08:44:46;;;;;;;21.23;16.90;;;;;;;19.36;92.09;100768.16;3760575;59;1152762;-83
2021/09/12 08:49:52;;;;;;;26.33;21.70;;;;;;;19.52;91.71;100774.37;3782251;59;1148880;-83
2021/09/12 08:54:58;;;;;;;30.95;21.87;;;;;;;19.70;91.79;100773.33;3778614;59;1143172;-84
2021/09/12 09:00:10;;;;;;;24.48;18.57;;;;;;;19.91;91.73;100773.07;3799781;59;1143084;-85
2021/09/12 09:05:15;;;;;;;22.50;17.87;;;;;;;20.17;90.82;100763.89;3800046;59;1152703;-82
2021/09/12 09:10:22;;;;;;;18.90;15.43;;;;;;;20.29;87.11;100769.23;3795783;59;1153283;-83
2021/09/12 09:15:27;;;;;;;19.82;17.67;;;;;;;20.29;87.11;100769.23;3814761;59;1143289;-82
2021/09/12 09:20:36;;;;;;;24.77;20.20;;;;;;;20.29;87.23;100763.86;3815401;59;1143087;-83
2021/09/12 09:25:42;;;;;;;19.60;16.07;;;;;;;20.47;86.87;100764.43;3815064;59;1151562;-81
2021/09/12 09:31:01;;;;;;;13.45;11.22;;;;;;;20.61;85.71;100763.70;3814788;59;1143090;-80
2021/09/12 09:36:08;;;;;;;14.58;13.03;;;;;;;20.62;82.51;100755.94;3791233;59;1143145;-83
2021/09/12 09:41:19;;;;;;;15.63;14.13;;;;;;;20.65;83.60;100752.90;3794883;59;1143130;-84
2021/09/12 09:46:38;;;;;;;14.57;13.07;;;;;;;20.69;83.38;100750.70;3802985;59;1147540;-84
2021/09/12 09:51:44;;;;;;;10.63;9.48;;;;;;;20.92;83.87;100752.89;3810357;60;1143265;-84
2021/09/12 09:56:51;;;;;;;8.73;7.90;;;;;;;21.21;83.02;100750.81;3807747;59;1143329;-86
2021/09/12 10:01:59;;;;;;;8.43;6.12;;;;;;;21.37;78.96;100747.14;3827378;60;1139082;-85
2021/09/12 10:07:04;;;;;;;11.53;7.90;;;;;;;21.54;78.14;100743.77;3787741;60;1148506;-87
2021/09/12 10:12:13;;;;;;;11.00;9.10;;;;;;;21.81;79.04;100735.04;3764028;60;1145788;-85
2021/09/12 10:17:26;;;;;;;6.17;5.57;;;;;;;21.93;79.13;100725.96;3782109;60;1141256;-83
2021/09/12 10:22:31;;;;;;;8.20;6.07;;;;;;;22.16;78.84;100732.58;3783435;60;1146627;-84
2021/09/12 10:27:59;;;;;;;6.90;5.97;;;;;;;22.31;77.57;100728.83;3787170;60;1138973;-81
2021/09/12 10:33:16;;;;;;;8.63;5.42;;;;;;;22.07;74.63;100724.63;3809183;59;1139070;-80
2021/09/12 10:38:35;;;;;;;10.68;4.47;;;;;;;21.97;74.09;100726.76;3819542;59;1139010;-83
2021/09/12 10:43:46;;;;;;;4.97;4.42;;;;;;;22.07;74.49;100724.63;3804660;59;1141032;-79
2021/09/12 10:49:04;;;;;;;5.03;4.67;;;;;;;22.03;74.00;100721.98;3804228;59;1138992;-83
2021/09/12 10:54:10;;;;;;;5.20;4.67;;;;;;;22.20;73.86;100722.59;3750037;59;1139221;-84
2021/09/12 10:59:17;;;;;;;4.58;4.17;;;;;;;22.21;73.03;100712.14;3776422;59;1138969;-82
2021/09/12 11:04:29;;;;;;;6.17;4.47;;;;;;;22.05;72.87;100715.89;4622028;59;1136880;-82
2021/09/12 11:09:35;;;;;;;4.87;4.42;;;;;;;22.10;74.37;100713.98;4936920;59;21165;-85
2021/09/12 11:14:41;;;;;;;4.60;4.10;;;;;;;22.45;73.62;100708.28;4969765;59;21192;-88
2021/09/12 11:19:54;;;;;;;11.48;3.55;;;;;;;22.57;71.29;100696.47;4993872;59;21738;-87
2021/09/12 11:25:07;;;;;;;4.93;3.07;;;;;;;22.76;70.95;100696.66;4838685;59;1220467;-89
2021/09/12 11:30:14;;;;;;;7.58;3.42;;;;;;;22.93;68.48;100695.03;3913805;58;1139376;-78
2021/09/12 11:35:20;;;;;;;4.25;3.92;;;;;;;22.82;68.99;100697.75;3930156;58;1139210;-82
2021/09/12 11:40:25;;;;;;;3.62;3.33;;;;;;;22.67;68.77;100690.22;4497144;60;1139190;-83
2021/09/12 11:45:32;;;;;;;4.70;2.72;;;;;;;22.62;70.44;100685.41;3976818;59;1139186;-83
2021/09/12 11:50:38;;;;;;;3.47;2.95;;;;;;;22.66;68.89;100681.30;4341097;59;1138813;-80
2021/09/12 11:55:44;;;;;;;4.10;3.40;;;;;;;22.71;69.13;100680.22;4851738;60;21967;-78
2021/09/12 12:00:50;;;;;;;2.55;2.40;;;;;;;22.79;67.04;100686.84;4851734;60;21199;-80
2021/09/12 12:05:58;;;;;;;3.20;2.90;;;;;;;22.70;67.45;100679.05;4792460;61;21141;-79
2021/09/12 12:11:07;;;;;;;3.37;2.83;;;;;;;22.75;65.54;100668.53;4776542;61;21298;-80
2021/09/12 12:16:14;;;;;;;3.00;2.80;;;;;;;22.85;67.59;100671.75;4739530;61;21206;-80
2021/09/12 12:21:19;;;;;;;3.60;2.92;;;;;;;23.02;66.11;100674.48;4754784;59;21254;-81
2021/09/12 12:26:25;;;;;;;3.45;3.12;;;;;;;23.20;66.23;100667.25;4976366;59;21194;-81
2021/09/12 12:31:30;;;;;;;3.42;3.12;;;;;;;23.33;65.94;100659.23;4977415;59;21111;-81
2021/09/12 12:36:36;;;;;;;4.87;4.45;;;;;;;23.57;66.42;100648.47;4940784;59;21166;-75
2021/09/12 12:41:53;;;;;;;4.25;3.75;;;;;;;23.65;65.34;100651.02;4977125;59;21564;-76
2021/09/12 12:46:59;;;;;;;7.45;4.30;;;;;;;23.73;66.00;100641.38;4976776;59;22071;-76
2021/09/12 12:52:15;;;;;;;4.08;3.72;;;;;;;23.74;65.01;100635.47;4960986;59;21191;-76
2021/09/12 12:57:21;;;;;;;4.40;3.47;;;;;;;23.77;64.57;100633.20;4936778;59;21144;-76
2021/09/12 13:02:26;;;;;;;4.50;4.08;;;;;;;23.82;62.91;100640.19;4937008;59;21119;-76
2021/09/12 13:07:32;;;;;;;4.65;4.25;;;;;;;23.83;64.37;100630.22;4965805;59;21174;-76
2021/09/12 13:12:38;;;;;;;8.55;4.60;;;;;;;23.89;64.14;100630.73;4975266;59;21218;-76
2021/09/12 13:17:44;;;;;;;3.35;3.12;;;;;;;24.03;63.58;100618.93;4954944;60;21588;-76
2021/09/12 13:22:50;;;;;;;4.83;4.53;;;;;;;24.05;62.63;100617.38;4954923;60;21119;-76
2021/09/12 13:27:57;;;;;;;4.97;4.50;;;;;;;24.10;62.20;100627.90;4955109;60;21174;-76
2021/09/12 13:33:04;;;;;;;5.00;4.60;;;;;;;24.03;62.69;100620.80;4954959;60;21173;-76
2021/09/12 13:38:10;;;;;;;4.40;3.80;;;;;;;23.97;63.46;100620.28;4955134;60;21186;-76
2021/09/12 13:43:16;;;;;;;3.47;3.27;;;;;;;23.92;63.56;100616.00;4955654;60;21174;-77
2021/09/12 13:48:22;;;;;;;4.05;3.75;;;;;;;23.82;63.68;100610.48;4953016;59;21111;-77
2021/09/12 13:53:27;;;;;;;4.60;3.70;;;;;;;23.65;63.87;100617.78;4955508;60;21231;-77
2021/09/12 13:58:33;;;;;;;4.33;3.92;;;;;;;23.43;64.49;100617.85;4879221;60;21154;-76
2021/09/12 14:03:38;;;;;;;4.10;3.80;;;;;;;23.32;64.83;100613.03;4868624;61;21200;-77
2021/09/12 14:08:44;;;;;;;4.10;3.90;;;;;;;23.27;64.55;100606.55;4874901;60;21224;-77
2021/09/12 14:13:50;;;;;;;6.72;4.20;;;;;;;23.29;65.03;100608.02;4937950;59;21205;-77
2021/09/12 14:18:55;;;;;;;3.58;3.37;;;;;;;23.36;64.39;100608.07;4895883;59;21225;-77
2021/09/12 14:24:01;;;;;;;5.12;3.33;;;;;;;23.52;64.98;100604.23;4899539;60;21154;-77
2021/09/12 14:29:07;;;;;;;4.37;3.98;;;;;;;23.40;63.76;100607.97;4899496;60;21201;-77
2021/09/12 14:34:12;;;;;;;5.58;4.90;;;;;;;23.24;64.40;100603.73;4899428;60;21119;-78
2021/09/12 14:39:18;;;;;;;4.12;3.80;;;;;;;23.14;64.92;100610.02;4899452;60;21189;-78
2021/09/12 14:44:23;;;;;;;9.00;3.50;;;;;;;23.07;65.65;100609.13;4899435;60;21182;-76
2021/09/12 14:49:29;;;;;;;4.50;4.12;;;;;;;22.92;66.60;100614.62;4899212;60;21481;-77
2021/09/12 14:54:34;;;;;;;3.90;3.60;;;;;;;22.57;68.13;100609.69;4899501;60;21111;-76
2021/09/12 14:59:41;;;;;;;4.60;4.12;;;;;;;22.33;69.11;100606.03;4899498;60;21262;-76
2021/09/12 15:04:47;;;;;;;4.97;3.58;;;;;;;22.12;70.38;100607.39;4899444;60;21185;-77
2021/09/12 15:09:53;;;;;;;3.22;3.02;;;;;;;22.02;71.06;100611.73;4899428;60;22170;-75
2021/09/12 15:15:00;;;;;;;4.17;3.87;;;;;;;21.99;71.02;100613.45;4913704;59;21529;-77
2021/09/12 15:20:07;;;;;;;4.90;4.20;;;;;;;22.03;71.06;100607.50;4955281;59;21202;-75
2021/09/12 15:25:12;;;;;;;4.67;3.47;;;;;;;22.13;71.01;100605.02;4955399;59;21178;-77
2021/09/12 15:30:18;;;;;;;5.95;2.58;;;;;;;22.36;70.77;100597.05;4955347;59;21174;-76
2021/09/12 15:35:24;;;;;;;4.17;2.87;;;;;;;22.63;70.48;100601.31;4955263;59;21178;-76
2021/09/12 15:40:30;;;;;;;4.47;3.08;;;;;;;22.75;68.97;100593.03;4954786;60;21170;-75
2021/09/12 15:45:35;;;;;;;4.25;3.00;;;;;;;22.76;69.04;100586.61;4951173;59;21182;-78
2021/09/12 15:50:43;;;;;;;6.20;3.37;;;;;;;22.74;68.61;100586.80;4951121;60;21235;-76
2021/09/12 15:55:50;;;;;;;7.17;2.90;;;;;;;22.69;68.80;100585.72;4951193;60;21194;-78
2021/09/12 16:00:55;;;;;;;3.95;2.80;;;;;;;22.60;69.42;100590.94;4950965;60;21533;-76
2021/09/12 16:06:01;;;;;;;4.22;2.92;;;;;;;22.51;69.26;100588.05;4863089;61;21215;-75
2021/09/12 16:11:07;;;;;;;4.80;2.37;;;;;;;22.38;69.35;100583.39;4951132;60;21124;-75
2021/09/12 16:16:12;;;;;;;5.97;2.90;;;;;;;22.26;69.59;100579.05;4958801;59;21217;-76
2021/09/12 16:21:18;;;;;;;3.55;2.77;;;;;;;22.16;69.77;100577.16;4972660;59;21187;-76
2021/09/12 16:26:24;;;;;;;2.65;2.55;;;;;;;22.09;69.69;100574.42;4974874;59;21235;-76
2021/09/12 16:31:30;;;;;;;4.50;4.20;;;;;;;22.03;70.07;100573.84;4976051;59;21182;-76
2021/09/12 16:36:35;;;;;;;11.45;7.70;;;;;;;21.99;70.26;100585.17;3891336;59;1135026;-77
2021/09/12 16:41:41;;;;;;;8.13;6.97;;;;;;;21.92;70.42;100577.02;3887849;58;1141211;-76
2021/09/12 16:51:52;;;;;;;3.67;2.47;;;;;;;21.91;70.63;100586.63;3871099;58;1138948;-76
2021/09/12 16:56:58;;;;;;;4.80;4.40;;;;;;;21.81;70.37;100595.53;3864195;59;1139008;-75
2021/09/12 17:02:03;;;;;;;4.40;4.00;;;;;;;21.70;70.87;100596.84;3826438;59;1139183;-78
2021/09/12 17:07:09;;;;;;;59.13;49.20;;;;;;;21.64;71.46;100597.61;3870587;59;1138987;-77
2021/09/12 17:12:15;;;;;;;6.12;5.20;;;;;;;21.62;72.11;100591.58;3824555;59;1143231;-79
2021/09/12 17:17:21;;;;;;;6.25;3.35;;;;;;;21.61;72.23;100595.30;3794202;59;1139240;-77
2021/09/12 17:22:27;;;;;;;11.20;5.60;;;;;;;21.64;72.55;100582.81;3905615;59;1139001;-77
2021/09/12 17:27:32;;;;;;;9.30;5.40;;;;;;;21.68;72.77;100584.11;4916399;59;21652;-78
2021/09/12 17:32:41;;;;;;;8.08;5.28;;;;;;;21.78;73.11;100585.97;4930318;59;21194;-77
2021/09/12 17:37:47;;;;;;;9.82;6.34;;;;;;;21.87;73.18;100586.16;4118027;59;1134846;-78
2021/09/12 17:42:55;;;;;;;7.80;4.80;;;;;;;21.93;73.15;100589.97;3875890;58;1139135;-77
2021/09/12 17:48:01;;;;;;;21.95;15.78;;;;;;;21.94;72.87;100597.86;3859840;58;1145907;-78
2021/09/12 17:53:08;;;;;;;15.30;11.00;;;;;;;21.93;72.58;100594.84;3809291;59;1143094;-78
2021/09/12 17:58:14;;;;;;;11.20;7.40;;;;;;;21.91;72.54;100601.44;3828870;58;1143137;-78
2021/09/12 18:03:21;;;;;;;16.83;7.17;;;;;;;21.80;72.36;100592.52;3841327;59;1150614;-78
2021/09/12 18:08:27;;;;;;;9.28;5.92;;;;;;;21.70;72.68;100594.98;3813138;59;1150662;-78
2021/09/12 18:13:33;;;;;;;30.80;15.25;;;;;;;21.56;72.21;100603.09;3872533;59;1138964;-78
2021/09/12 18:18:39;;;;;;;15.75;9.50;;;;;;;21.34;72.28;100614.31;3836556;58;1143232;-77
2021/09/12 18:23:46;;;;;;;10.75;8.15;;;;;;;21.10;72.50;100623.45;3834950;58;1141108;-77
2021/09/12 18:28:52;;;;;;;10.83;8.50;;;;;;;20.85;73.11;100632.28;3814121;59;1147086;-78
2021/09/12 18:34:02;;;;;;;17.92;8.15;;;;;;;20.86;74.29;100630.44;3813742;59;1141139;-77
2021/09/12 18:39:06;;;;;;;15.90;9.05;;;;;;;20.95;74.50;100635.53;3807267;58;1141339;-77
2021/09/12 18:44:12;;;;;;;10.97;7.55;;;;;;;21.05;74.75;100638.81;3786941;59;1146499;-78
2021/09/12 18:49:19;;;;;;;15.58;9.73;;;;;;;21.13;74.82;100644.59;3767576;59;1141175;-78
2021/09/12 18:54:24;;;;;;;18.75;11.43;;;;;;;21.08;74.38;100649.17;3791448;59;1150892;-77
2021/09/12 18:59:30;;;;;;;27.30;17.12;;;;;;;20.97;74.16;100656.87;3791694;59;1143124;-77
2021/09/12 19:04:36;;;;;;;21.17;13.38;;;;;;;20.79;74.19;100655.02;3792975;59;1143711;-76
2021/09/12 19:09:43;;;;;;;17.00;9.58;;;;;;;20.73;74.72;100654.41;3789303;59;1143093;-77
2021/09/12 19:14:50;;;;;;;10.05;7.53;;;;;;;20.75;75.16;100651.88;3792818;59;1141039;-78
2021/09/12 19:19:56;;;;;;;6.20;4.80;;;;;;;20.77;75.15;100655.73;3932808;59;1164376;-78
2021/09/12 19:25:04;;;;;;;4.68;4.28;;;;;;;20.69;74.80;100656.63;3795051;59;1260084;-79
2021/09/12 19:30:11;;;;;;;18.17;8.27;;;;;;;20.54;74.97;100650.37;3838032;59;1139192;-78
2021/09/12 19:35:18;;;;;;;30.37;9.65;;;;;;;20.56;75.41;100656.41;3811890;59;1141073;-79
2021/09/12 19:40:23;;;;;;;30.27;10.32;;;;;;;20.58;75.34;100662.44;3794996;59;1141050;-78
2021/09/12 19:45:29;;;;;;;20.37;9.30;;;;;;;20.58;75.30;100665.96;3810713;59;1143181;-78
2021/09/12 19:50:35;;;;;;;18.32;8.48;;;;;;;20.49;74.67;100664.84;4871220;59;1141165;-79
2021/09/12 19:55:41;;;;;;;15.53;7.78;;;;;;;20.35;74.94;100667.77;4862749;59;1141039;-78
2021/09/12 20:00:48;;;;;;;15.50;9.65;;;;;;;20.33;75.36;100667.11;4941147;59;1141311;-79
2021/09/12 20:05:54;;;;;;;28.90;12.75;;;;;;;20.38;75.54;100669.30;4931749;59;1141462;-77
2021/09/12 20:11:00;;;;;;;30.65;12.80;;;;;;;20.32;75.16;100674.83;4912853;59;1143062;-79
2021/09/12 20:16:06;;;;;;;13.05;8.95;;;;;;;20.32;75.53;100677.02;4912685;59;1143210;-78
2021/09/12 20:21:12;;;;;;;20.72;8.65;;;;;;;20.30;75.38;100676.89;4910942;59;1140896;-78
2021/09/12 20:26:18;;;;;;;25.00;9.03;;;;;;;20.29;75.30;100678.73;4895555;59;1140946;-78
2021/09/12 20:31:25;;;;;;;24.92;8.98;;;;;;;20.27;75.32;100674.05;4877727;59;1140984;-78
2021/09/12 20:36:32;;;;;;;14.10;7.10;;;;;;;20.17;74.92;100681.48;4880037;59;1141082;-78
2021/09/12 20:41:37;;;;;;;7.33;6.30;;;;;;;19.98;74.98;100684.13;4871927;59;1141118;-78
2021/09/12 20:46:43;;;;;;;8.65;6.00;;;;;;;19.81;75.14;100687.89;4894440;58;1139026;-78
2021/09/12 20:51:48;;;;;;;6.37;5.60;;;;;;;19.69;75.61;100683.09;4912566;59;1138969;-78
2021/09/12 20:56:54;;;;;;;7.03;5.80;;;;;;;19.65;75.85;100683.43;4833610;58;1138885;-78
2021/09/12 21:02:00;;;;;;;7.53;6.08;;;;;;;19.65;76.28;100689.30;4800503;59;1138975;-78
2021/09/12 21:07:06;;;;;;;7.22;6.53;;;;;;;19.52;76.36;100692.54;4800486;59;1138976;-77
2021/09/12 21:12:12;;;;;;;6.28;5.67;;;;;;;19.51;76.67;100690.86;4800731;59;1138803;-78
2021/09/12 21:17:17;;;;;;;10.32;6.33;;;;;;;19.52;76.71;100701.09;4800660;59;1138940;-78
2021/09/12 21:22:23;;;;;;;12.43;5.65;;;;;;;19.47;76.83;100706.09;4800438;59;1140895;-78
2021/09/12 21:27:29;;;;;;;6.33;5.75;;;;;;;19.35;76.90;100706.97;4800419;59;1140985;-78
2021/09/12 21:32:35;;;;;;;9.58;6.37;;;;;;;19.23;77.35;100703.81;4800862;59;1138794;-78
2021/09/12 21:37:41;;;;;;;8.83;6.00;;;;;;;19.12;77.49;100713.53;4800784;59;1138957;-78
2021/09/12 21:42:46;;;;;;;17.02;6.15;;;;;;;19.00;77.89;100693.44;4841200;59;1138789;-77
2021/09/12 21:47:52;;;;;;;8.03;6.10;;;;;;;19.00;78.61;100696.62;4876534;59;1140936;-79
2021/09/12 21:52:58;;;;;;;10.40;6.75;;;;;;;18.94;78.75;100695.48;4859932;59;1139009;-77
2021/09/12 21:58:03;;;;;;;11.33;6.65;;;;;;;19.00;79.00;100697.97;4872837;59;1140867;-77
2021/09/12 22:03:09;;;;;;;8.68;6.03;;;;;;;18.99;79.03;100701.15;4857768;59;1140926;-77
2021/09/12 22:08:14;;;;;;;7.95;6.33;;;;;;;18.93;79.25;100697.82;4856670;59;1138760;-77
2021/09/12 22:13:20;;;;;;;5.70;5.28;;;;;;;18.91;79.67;100700.66;4855928;60;1138944;-77
2021/09/12 22:18:26;;;;;;;9.83;6.05;;;;;;;18.88;79.77;100705.02;4856455;60;1138776;-77
2021/09/12 22:23:32;;;;;;;17.30;6.30;;;;;;;18.89;79.85;100702.67;4856651;60;1139039;-78
2021/09/12 22:28:38;;;;;;;8.70;7.70;;;;;;;18.91;79.98;100691.28;4834534;59;1140907;-77
2021/09/12 22:33:45;;;;;;;7.87;7.10;;;;;;;19.01;80.62;100691.59;4784897;60;1139150;-79
2021/09/12 22:38:51;;;;;;;8.47;6.50;;;;;;;19.05;80.39;100695.13;4785055;60;1138853;-79
2021/09/12 22:43:56;;;;;;;12.33;7.03;;;;;;;19.02;80.41;100688.75;4841479;60;1139118;-79
2021/09/12 22:49:02;;;;;;;7.87;6.30;;;;;;;18.93;80.16;100689.28;4859064;60;1140869;-77
2021/09/12 22:54:08;;;;;;;10.45;6.12;;;;;;;18.91;80.40;100686.42;4858016;60;1138855;-77
2021/09/12 22:59:16;;;;;;;8.70;6.55;;;;;;;18.86;80.63;100686.92;4860168;59;1141124;-79
2021/09/12 23:04:21;;;;;;;15.85;6.40;;;;;;;18.80;80.79;100684.91;4860182;60;1138958;-79
2021/09/12 23:09:27;;;;;;;6.70;5.92;;;;;;;18.74;81.10;100687.44;4860067;60;1140885;-77
2021/09/12 23:14:33;;;;;;;6.67;6.08;;;;;;;18.70;81.31;100687.42;4860432;60;1139241;-79
2021/09/12 23:19:39;;;;;;;6.87;6.00;;;;;;;18.67;81.40;100691.77;4860403;60;1138993;-77